Jp Tsubaki — JD2817 — position and weather

sailwx.info

Track history (hours):
 
Tides and Currents Weather Stations Pressure Air Temp Water Temp Dewpoint Dewpoint Depression Visibility Wind Speed Wind Dir Waves Ship Positions

Jp Tsubaki

Last reported at 2015-Sep-01 23:32 UTC. Time now 2015-Sep-02 00:26 UTC.
Position N 35°24' E 139°40'.

Length 115 m; draft 4.5 m.

Type: Cargo ship. MMSI: 431000734.

Date/timePositionNaut miles runAvg speedWind from/ knotsBaromVisibWave heightAir tempDewpointWater temp
2015-Sep-01 23:32N 35°24' E 139°40'0 0.0
2015-Sep-01 22:32N 35°24' E 139°40'0 0.0
2015-Sep-01 21:32N 35°24' E 139°40'0 0.0
2015-Sep-01 20:32N 35°24' E 139°40'0 0.0
2015-Sep-01 19:32N 35°24' E 139°40'0 0.0
2015-Sep-01 18:32N 35°24' E 139°40'0 0.0
2015-Sep-01 17:32N 35°24' E 139°40'0 0.0
2015-Sep-01 16:32N 35°24' E 139°40'0 0.0
2015-Sep-01 15:32N 35°24' E 139°40'0 0.0
2015-Sep-01 14:32N 35°24' E 139°40'0 0.0
2015-Sep-01 13:32N 35°24' E 139°40'0 0.0
2015-Sep-01 12:32N 35°24' E 139°40'0 0.0
2015-Sep-01 11:32N 35°24' E 139°40'0 0.0
2015-Sep-01 10:32N 35°24' E 139°40'0 0.0
2015-Sep-01 09:32N 35°24' E 139°40'0 0.0
2015-Sep-01 08:32N 35°24' E 139°40'0 0.0
2015-Sep-01 07:32N 35°24' E 139°40'0 0.0
2015-Sep-01 06:32N 35°24' E 139°40'0 0.0
2015-Sep-01 05:32N 35°24' E 139°40'0 0.0
2015-Sep-01 04:32N 35°24' E 139°40'1 1.2
2015-Sep-01 03:31N 35°24' E 139°39'0 0.0
2015-Sep-01 02:31N 35°24' E 139°39'0 0.0
2015-Sep-01 01:31N 35°24' E 139°39'0 0.0
2015-Sep-01 00:31N 35°24' E 139°39'0 0.0
2015-Aug-31 23:31N 35°24' E 139°39'0 0.0
2015-Aug-31 22:31N 35°24' E 139°39'0 0.0
2015-Aug-31 21:31N 35°24' E 139°39'0 0.0
2015-Aug-31 20:31N 35°24' E 139°39'0 0.0
2015-Aug-31 19:31N 35°24' E 139°39'0 0.0
2015-Aug-31 18:31N 35°24' E 139°39'0 0.0
2015-Aug-31 17:31N 35°24' E 139°39'0 0.0
2015-Aug-31 16:31N 35°24' E 139°39'0 0.0
2015-Aug-31 15:31N 35°24' E 139°39'0 0.0
2015-Aug-31 14:31N 35°24' E 139°39'0 0.0
2015-Aug-31 13:31N 35°24' E 139°39'1 1.0
2015-Aug-31 12:33N 35°24' E 139°40'1010.1
2015-Aug-31 11:33N 35°29' E 139°50'5 4.6
2015-Aug-31 10:32N 35°29' E 139°56'0 0.0
2015-Aug-31 09:32N 35°29' E 139°56'0 0.0
2015-Aug-31 08:29N 35°29' E 139°56'0 0.0
2015-Aug-31 07:26N 35°29' E 139°56'0 0.1
2015-Aug-31 06:32N 35°29' E 139°56'0 0.1
2015-Aug-31 05:32N 35°29' E 139°56'0 0.0
2015-Aug-31 04:32N 35°29' E 139°56'0 0.0
2015-Aug-31 03:32N 35°29' E 139°56'0 0.0
2015-Aug-31 02:32N 35°29' E 139°56'0 0.0
2015-Aug-31 01:29N 35°29' E 139°56'0 0.0
2015-Aug-31 00:20N 35°29' E 139°56'0 0.0
2015-Aug-30 23:32N 35°29' E 139°56'0 0.0
2015-Aug-30 22:32N 35°29' E 139°56'0 0.0
2015-Aug-30 21:32N 35°29' E 139°56'0 0.0
2015-Aug-30 20:32N 35°29' E 139°56'0 0.3
2015-Aug-30 19:33N 35°29' E 139°56'2 2.0
2015-Aug-30 18:30N 35°27' E 139°58'0 0.0
2015-Aug-30 17:30N 35°27' E 139°58'0 0.0
2015-Aug-30 16:30N 35°27' E 139°58'0 0.0
2015-Aug-30 15:33N 35°27' E 139°58'0 0.1
2015-Aug-30 14:33N 35°27' E 139°58'9 8.7
2015-Aug-30 13:34N 35°26' E 139°48'8 7.4
2015-Aug-30 12:33N 35°24' E 139°39'0 0.0
2015-Aug-30 11:33N 35°24' E 139°39'0 0.0
2015-Aug-30 10:33N 35°24' E 139°39'0 0.0
2015-Aug-30 09:33N 35°24' E 139°39'0 0.0
2015-Aug-30 08:33N 35°24' E 139°39'0 0.0
2015-Aug-30 07:33N 35°24' E 139°39'0 0.0
2015-Aug-30 06:33N 35°24' E 139°39'0 0.0
2015-Aug-30 05:33N 35°24' E 139°39'0 0.0
2015-Aug-30 04:33N 35°24' E 139°39'1 1.2
2015-Aug-30 03:32N 35°24' E 139°40'0 0.0
2015-Aug-30 02:32N 35°24' E 139°40'0 0.0
2015-Aug-30 01:32N 35°24' E 139°40'0 0.0
2015-Aug-30 00:32N 35°24' E 139°40'0 0.0
2015-Aug-29 23:32N 35°24' E 139°40'0 0.0
2015-Aug-29 22:32N 35°24' E 139°40'2 1.9
2015-Aug-29 21:34N 35°23' E 139°42'2 2.3
2015-Aug-29 20:33N 35°22' E 139°44'0 0.0
2015-Aug-29 19:33N 35°22' E 139°44'0 0.0
2015-Aug-29 18:33N 35°22' E 139°44'0 0.0
2015-Aug-29 17:33N 35°22' E 139°44'0 0.0
2015-Aug-29 16:33N 35°22' E 139°44'0 0.0
2015-Aug-29 15:33N 35°22' E 139°44'0 0.0
2015-Aug-29 14:33N 35°22' E 139°44'0 0.0
2015-Aug-29 13:33N 35°22' E 139°44'5 4.9
2015-Aug-29 12:31N 35°24' E 139°39'0 0.0
2015-Aug-29 11:31N 35°24' E 139°39'0 0.0
2015-Aug-29 10:31N 35°24' E 139°39'0 0.0
2015-Aug-29 09:31N 35°24' E 139°39'0 0.0
2015-Aug-29 08:31N 35°24' E 139°39'0 0.0
2015-Aug-29 07:31N 35°24' E 139°39'0 0.0
2015-Aug-29 06:31N 35°24' E 139°39'0 0.0
2015-Aug-29 05:31N 35°24' E 139°39'0 0.3
2015-Aug-29 04:33N 35°24' E 139°38'1 1.3
2015-Aug-29 03:33N 35°24' E 139°40'0 0.0
2015-Aug-29 02:33N 35°24' E 139°40'0 0.0
2015-Aug-29 01:33N 35°24' E 139°40'0 0.0
2015-Aug-29 00:33N 35°24' E 139°40'0 0.0
2015-Aug-28 23:33N 35°24' E 139°40'0 0.0
2015-Aug-28 22:30N 35°24' E 139°40'1 1.3
2015-Aug-28 21:33N 35°23' E 139°41'3 2.8
2015-Aug-28 20:33N 35°23' E 139°44'0 0.0
2015-Aug-28 19:33N 35°23' E 139°44'0 0.0
2015-Aug-28 18:33N 35°23' E 139°44'0 0.0
2015-Aug-28 17:33N 35°23' E 139°44'0 0.0
2015-Aug-28 16:33N 35°23' E 139°44'0 0.0
2015-Aug-28 15:33N 35°23' E 139°44'0 0.0
2015-Aug-28 14:32N 35°23' E 139°44'0 0.0
2015-Aug-28 13:32N 35°23' E 139°44'5 5.0
2015-Aug-28 12:32N 35°24' E 139°39'0 0.0
2015-Aug-28 11:32N 35°24' E 139°39'0 0.0
2015-Aug-28 10:32N 35°24' E 139°39'0 0.1
2015-Aug-28 09:32N 35°24' E 139°39'0 0.1
2015-Aug-28 08:32N 35°24' E 139°39'0 0.0
2015-Aug-28 07:32N 35°24' E 139°39'0 0.0
2015-Aug-28 06:32N 35°24' E 139°39'0 0.0
2015-Aug-28 05:32N 35°24' E 139°39'0 0.0
2015-Aug-28 04:34N 35°24' E 139°39'1 1.2
2015-Aug-28 03:32N 35°24' E 139°40'0 0.0
2015-Aug-28 02:32N 35°24' E 139°40'0 0.0
2015-Aug-28 01:32N 35°24' E 139°40'0 0.0
2015-Aug-28 00:32N 35°24' E 139°40'0 0.0
2015-Aug-27 23:32N 35°24' E 139°40'0 0.0
2015-Aug-27 22:32N 35°24' E 139°40'2 2.1
2015-Aug-27 21:33N 35°23' E 139°42'2 2.1
2015-Aug-27 20:31N 35°23' E 139°44'0 0.0
2015-Aug-27 19:31N 35°23' E 139°45'0 0.0
2015-Aug-27 18:31N 35°23' E 139°45'0 0.1
2015-Aug-27 17:31N 35°23' E 139°45'0 0.1
2015-Aug-27 16:31N 35°23' E 139°45'0 0.1
2015-Aug-27 15:31N 35°23' E 139°44'0 0.0
2015-Aug-27 14:31N 35°23' E 139°44'0 0.0
2015-Aug-27 13:31N 35°23' E 139°44'5 5.0
2015-Aug-27 12:31N 35°24' E 139°39'0 0.0
2015-Aug-27 11:31N 35°24' E 139°39'0 0.0
2015-Aug-27 10:31N 35°24' E 139°39'0 0.0
2015-Aug-27 09:31N 35°24' E 139°39'0 0.0
2015-Aug-27 08:31N 35°24' E 139°39'0 0.0
2015-Aug-27 07:31N 35°24' E 139°39'0 0.0
2015-Aug-27 06:28N 35°24' E 139°39'0 0.0
2015-Aug-27 05:33N 35°24' E 139°39'0 0.3
2015-Aug-27 04:33N 35°24' E 139°38'1 1.3
2015-Aug-27 03:32N 35°24' E 139°40'0 0.0
2015-Aug-27 02:32N 35°24' E 139°40'0 0.0
2015-Aug-27 01:32N 35°24' E 139°40'0 0.0
2015-Aug-27 00:32N 35°24' E 139°40'0 0.0
2015-Aug-26 23:32N 35°24' E 139°40'0 0.0
2015-Aug-26 22:32N 35°24' E 139°40'1 1.5
2015-Aug-26 21:33N 35°23' E 139°41'3 2.7
2015-Aug-26 20:33N 35°22' E 139°44'0 0.0
2015-Aug-26 19:33N 35°22' E 139°44'0 0.0
2015-Aug-26 18:33N 35°22' E 139°44'0 0.0
2015-Aug-26 17:33N 35°22' E 139°44'0 0.0
2015-Aug-26 16:33N 35°22' E 139°44'0 0.0
2015-Aug-26 15:33N 35°22' E 139°44'0 0.0
2015-Aug-26 14:33N 35°22' E 139°44'0 0.0
2015-Aug-26 13:33N 35°22' E 139°44'5 4.7
2015-Aug-26 12:28N 35°24' E 139°39'0 0.0
2015-Aug-26 11:31N 35°24' E 139°39'0 0.0
2015-Aug-26 10:31N 35°24' E 139°39'0 0.0
2015-Aug-26 09:31N 35°24' E 139°39'0 0.0
2015-Aug-26 08:31N 35°24' E 139°39'0 0.0
2015-Aug-26 07:31N 35°24' E 139°39'0 0.0
2015-Aug-26 06:34N 35°24' E 139°39'4 3.6
2015-Aug-26 05:33N 35°25' E 139°43'5 5.4
2015-Aug-26 04:34N 35°30' E 139°44'1 1.0
2015-Aug-26 03:32N 35°30' E 139°43'0 0.0
2015-Aug-26 02:32N 35°30' E 139°43'0 0.0
2015-Aug-26 01:32N 35°30' E 139°43'0 0.0
2015-Aug-26 00:32N 35°30' E 139°43'0 0.0
2015-Aug-25 23:32N 35°30' E 139°43'0 0.0
2015-Aug-25 22:34N 35°30' E 139°43'6 5.6
2015-Aug-25 21:34N 35°24' E 139°45'2 1.7
2015-Aug-25 20:31N 35°23' E 139°45'0 0.1
2015-Aug-25 19:31N 35°23' E 139°45'0 0.0
2015-Aug-25 18:31N 35°23' E 139°45'0 0.0
2015-Aug-25 17:31N 35°23' E 139°45'0 0.0
2015-Aug-25 16:31N 35°23' E 139°45'0 0.0
2015-Aug-25 15:31N 35°23' E 139°45'0 0.0
2015-Aug-25 14:31N 35°23' E 139°45'2 1.8
2015-Aug-25 13:33N 35°23' E 139°43'4 3.5
2015-Aug-25 12:33N 35°24' E 139°39'0 0.0
2015-Aug-25 11:33N 35°24' E 139°39'0 0.0
2015-Aug-25 10:30N 35°24' E 139°39'0 0.0
2015-Aug-25 09:33N 35°24' E 139°39'0 0.0
2015-Aug-25 08:33N 35°24' E 139°39'0 0.0
2015-Aug-25 07:33N 35°24' E 139°39'0 0.0
2015-Aug-25 06:33N 35°24' E 139°39'0 0.0
2015-Aug-25 05:33N 35°24' E 139°39'0 0.0
2015-Aug-25 04:30N 35°24' E 139°39'0 0.0
2015-Aug-25 03:33N 35°24' E 139°39'0 0.0
2015-Aug-25 02:33N 35°24' E 139°39'0 0.0
2015-Aug-25 01:30N 35°24' E 139°39'3 2.7
2015-Aug-25 00:34N 35°23' E 139°42'7 7.3
2015-Aug-24 23:33N 35°30' E 139°45'1 1.4
2015-Aug-24 22:33N 35°30' E 139°43'0 0.0
2015-Aug-24 21:33N 35°30' E 139°43'0 0.0
2015-Aug-24 20:33N 35°30' E 139°43'0 0.0
2015-Aug-24 19:33N 35°30' E 139°43'0 0.0
2015-Aug-24 18:33N 35°30' E 139°43'0 0.0
2015-Aug-24 17:33N 35°30' E 139°43'0 0.0
2015-Aug-24 16:33N 35°30' E 139°43'0 0.0
2015-Aug-24 15:30N 35°30' E 139°43'0 0.0
2015-Aug-24 14:33N 35°30' E 139°43'0 0.0
2015-Aug-24 13:33N 35°30' E 139°43'0 0.0
2015-Aug-24 12:33N 35°30' E 139°43'0 0.0
2015-Aug-24 11:33N 35°30' E 139°43'0 0.0
2015-Aug-24 10:33N 35°30' E 139°43'0 0.0
2015-Aug-24 09:33N 35°30' E 139°43'0 0.0
2015-Aug-24 08:33N 35°30' E 139°43'0 0.0
2015-Aug-24 07:33N 35°30' E 139°43'0 0.0
2015-Aug-24 06:33N 35°30' E 139°43'0 0.0
2015-Aug-24 05:33N 35°30' E 139°43'0 0.0
2015-Aug-24 04:33N 35°30' E 139°43'0 0.0
2015-Aug-24 03:33N 35°30' E 139°43'0 0.0
2015-Aug-24 02:33N 35°30' E 139°43'0 0.0
2015-Aug-24 01:33N 35°30' E 139°43'0 0.0
2015-Aug-24 00:33N 35°30' E 139°43'0 0.0
2015-Aug-23 23:33N 35°30' E 139°43'4 3.9
2015-Aug-23 22:33N 35°27' E 139°46'3 3.2
2015-Aug-23 21:33N 35°26' E 139°50'0 0.1
2015-Aug-23 20:33N 35°26' E 139°50'0 0.0
2015-Aug-23 19:33N 35°26' E 139°50'0 0.0
2015-Aug-23 18:33N 35°26' E 139°50'0 0.0
2015-Aug-23 17:33N 35°26' E 139°50'0 0.0
2015-Aug-23 16:30N 35°26' E 139°50'0 0.1
2015-Aug-23 15:33N 35°26' E 139°50'0 0.0
2015-Aug-23 14:33N 35°26' E 139°50'1 1.2
2015-Aug-23 13:33N 35°26' E 139°49'8 8.2
2015-Aug-23 12:32N 35°24' E 139°39'0 0.0
2015-Aug-23 11:32N 35°24' E 139°39'0 0.0
2015-Aug-23 10:32N 35°24' E 139°39'0 0.0
2015-Aug-23 09:32N 35°24' E 139°39'0 0.0
2015-Aug-23 08:32N 35°24' E 139°39'0 0.0
2015-Aug-23 07:32N 35°24' E 139°39'0 0.0
2015-Aug-23 06:33N 35°24' E 139°39'6 5.7
2015-Aug-23 05:34N 35°26' E 139°45'4 3.9
2015-Aug-23 04:34N 35°30' E 139°43'0 0.0
2015-Aug-23 03:32N 35°30' E 139°43'0 0.0
2015-Aug-23 02:32N 35°30' E 139°43'0 0.0
2015-Aug-23 01:32N 35°30' E 139°43'0 0.0
2015-Aug-23 00:32N 35°30' E 139°43'0 0.0
2015-Aug-22 23:32N 35°30' E 139°43'  
Track history (hours):
 
Tides and Currents Weather Stations Pressure Air Temp Water Temp Dewpoint Dewpoint Depression Visibility Wind Speed Wind Dir Waves Ship Positions

Jp Tsubaki

Last reported at 2015-Sep-01 23:32 UTC. Time now 2015-Sep-02 00:26 UTC.
Position N 35°24' E 139°40'.

Length 115 m; draft 4.5 m.

Type: Cargo ship. MMSI: 431000734.

Date/timePositionNaut miles runAvg speedWind from/ knotsBaromVisibWave heightAir tempDewpointWater temp
2015-Sep-01 23:32N 35°24' E 139°40'0 0.0
2015-Sep-01 22:32N 35°24' E 139°40'0 0.0
2015-Sep-01 21:32N 35°24' E 139°40'0 0.0
2015-Sep-01 20:32N 35°24' E 139°40'0 0.0
2015-Sep-01 19:32N 35°24' E 139°40'0 0.0
2015-Sep-01 18:32N 35°24' E 139°40'0 0.0
2015-Sep-01 17:32N 35°24' E 139°40'0 0.0
2015-Sep-01 16:32N 35°24' E 139°40'0 0.0
2015-Sep-01 15:32N 35°24' E 139°40'0 0.0
2015-Sep-01 14:32N 35°24' E 139°40'0 0.0
2015-Sep-01 13:32N 35°24' E 139°40'0 0.0
2015-Sep-01 12:32N 35°24' E 139°40'0 0.0
2015-Sep-01 11:32N 35°24' E 139°40'0 0.0
2015-Sep-01 10:32N 35°24' E 139°40'0 0.0
2015-Sep-01 09:32N 35°24' E 139°40'0 0.0
2015-Sep-01 08:32N 35°24' E 139°40'0 0.0
2015-Sep-01 07:32N 35°24' E 139°40'0 0.0
2015-Sep-01 06:32N 35°24' E 139°40'0 0.0
2015-Sep-01 05:32N 35°24' E 139°40'0 0.0
2015-Sep-01 04:32N 35°24' E 139°40'1 1.2
2015-Sep-01 03:31N 35°24' E 139°39'0 0.0
2015-Sep-01 02:31N 35°24' E 139°39'0 0.0
2015-Sep-01 01:31N 35°24' E 139°39'0 0.0
2015-Sep-01 00:31N 35°24' E 139°39'0 0.0
2015-Aug-31 23:31N 35°24' E 139°39'0 0.0
2015-Aug-31 22:31N 35°24' E 139°39'0 0.0
2015-Aug-31 21:31N 35°24' E 139°39'0 0.0
2015-Aug-31 20:31N 35°24' E 139°39'0 0.0
2015-Aug-31 19:31N 35°24' E 139°39'0 0.0
2015-Aug-31 18:31N 35°24' E 139°39'0 0.0
2015-Aug-31 17:31N 35°24' E 139°39'0 0.0
2015-Aug-31 16:31N 35°24' E 139°39'0 0.0
2015-Aug-31 15:31N 35°24' E 139°39'0 0.0
2015-Aug-31 14:31N 35°24' E 139°39'0 0.0
2015-Aug-31 13:31N 35°24' E 139°39'1 1.0
2015-Aug-31 12:33N 35°24' E 139°40'1010.1
2015-Aug-31 11:33N 35°29' E 139°50'5 4.6
2015-Aug-31 10:32N 35°29' E 139°56'0 0.0
2015-Aug-31 09:32N 35°29' E 139°56'0 0.0
2015-Aug-31 08:29N 35°29' E 139°56'0 0.0
2015-Aug-31 07:26N 35°29' E 139°56'0 0.1
2015-Aug-31 06:32N 35°29' E 139°56'0 0.1
2015-Aug-31 05:32N 35°29' E 139°56'0 0.0
2015-Aug-31 04:32N 35°29' E 139°56'0 0.0
2015-Aug-31 03:32N 35°29' E 139°56'0 0.0
2015-Aug-31 02:32N 35°29' E 139°56'0 0.0
2015-Aug-31 01:29N 35°29' E 139°56'0 0.0
2015-Aug-31 00:20N 35°29' E 139°56'0 0.0
2015-Aug-30 23:32N 35°29' E 139°56'0 0.0
2015-Aug-30 22:32N 35°29' E 139°56'0 0.0
2015-Aug-30 21:32N 35°29' E 139°56'0 0.0
2015-Aug-30 20:32N 35°29' E 139°56'0 0.3
2015-Aug-30 19:33N 35°29' E 139°56'2 2.0
2015-Aug-30 18:30N 35°27' E 139°58'0 0.0
2015-Aug-30 17:30N 35°27' E 139°58'0 0.0
2015-Aug-30 16:30N 35°27' E 139°58'0 0.0
2015-Aug-30 15:33N 35°27' E 139°58'0 0.1
2015-Aug-30 14:33N 35°27' E 139°58'9 8.7
2015-Aug-30 13:34N 35°26' E 139°48'8 7.4
2015-Aug-30 12:33N 35°24' E 139°39'0 0.0
2015-Aug-30 11:33N 35°24' E 139°39'0 0.0
2015-Aug-30 10:33N 35°24' E 139°39'0 0.0
2015-Aug-30 09:33N 35°24' E 139°39'0 0.0
2015-Aug-30 08:33N 35°24' E 139°39'0 0.0
2015-Aug-30 07:33N 35°24' E 139°39'0 0.0
2015-Aug-30 06:33N 35°24' E 139°39'0 0.0
2015-Aug-30 05:33N 35°24' E 139°39'0 0.0
2015-Aug-30 04:33N 35°24' E 139°39'1 1.2
2015-Aug-30 03:32N 35°24' E 139°40'0 0.0
2015-Aug-30 02:32N 35°24' E 139°40'0 0.0
2015-Aug-30 01:32N 35°24' E 139°40'0 0.0
2015-Aug-30 00:32N 35°24' E 139°40'0 0.0
2015-Aug-29 23:32N 35°24' E 139°40'0 0.0
2015-Aug-29 22:32N 35°24' E 139°40'2 1.9
2015-Aug-29 21:34N 35°23' E 139°42'2 2.3
2015-Aug-29 20:33N 35°22' E 139°44'0 0.0
2015-Aug-29 19:33N 35°22' E 139°44'0 0.0
2015-Aug-29 18:33N 35°22' E 139°44'0 0.0
2015-Aug-29 17:33N 35°22' E 139°44'0 0.0
2015-Aug-29 16:33N 35°22' E 139°44'0 0.0
2015-Aug-29 15:33N 35°22' E 139°44'0 0.0
2015-Aug-29 14:33N 35°22' E 139°44'0 0.0
2015-Aug-29 13:33N 35°22' E 139°44'5 4.9
2015-Aug-29 12:31N 35°24' E 139°39'0 0.0
2015-Aug-29 11:31N 35°24' E 139°39'0 0.0
2015-Aug-29 10:31N 35°24' E 139°39'0 0.0
2015-Aug-29 09:31N 35°24' E 139°39'0 0.0
2015-Aug-29 08:31N 35°24' E 139°39'0 0.0
2015-Aug-29 07:31N 35°24' E 139°39'0 0.0
2015-Aug-29 06:31N 35°24' E 139°39'0 0.0
2015-Aug-29 05:31N 35°24' E 139°39'0 0.3
2015-Aug-29 04:33N 35°24' E 139°38'1 1.3
2015-Aug-29 03:33N 35°24' E 139°40'0 0.0
2015-Aug-29 02:33N 35°24' E 139°40'0 0.0
2015-Aug-29 01:33N 35°24' E 139°40'0 0.0
2015-Aug-29 00:33N 35°24' E 139°40'0 0.0
2015-Aug-28 23:33N 35°24' E 139°40'0 0.0
2015-Aug-28 22:30N 35°24' E 139°40'1 1.3
2015-Aug-28 21:33N 35°23' E 139°41'3 2.8
2015-Aug-28 20:33N 35°23' E 139°44'0 0.0
2015-Aug-28 19:33N 35°23' E 139°44'0 0.0
2015-Aug-28 18:33N 35°23' E 139°44'0 0.0
2015-Aug-28 17:33N 35°23' E 139°44'0 0.0
2015-Aug-28 16:33N 35°23' E 139°44'0 0.0
2015-Aug-28 15:33N 35°23' E 139°44'0 0.0
2015-Aug-28 14:32N 35°23' E 139°44'0 0.0
2015-Aug-28 13:32N 35°23' E 139°44'5 5.0
2015-Aug-28 12:32N 35°24' E 139°39'0 0.0
2015-Aug-28 11:32N 35°24' E 139°39'0 0.0
2015-Aug-28 10:32N 35°24' E 139°39'0 0.1
2015-Aug-28 09:32N 35°24' E 139°39'0 0.1
2015-Aug-28 08:32N 35°24' E 139°39'0 0.0
2015-Aug-28 07:32N 35°24' E 139°39'0 0.0
2015-Aug-28 06:32N 35°24' E 139°39'0 0.0
2015-Aug-28 05:32N 35°24' E 139°39'0 0.0
2015-Aug-28 04:34N 35°24' E 139°39'1 1.2
2015-Aug-28 03:32N 35°24' E 139°40'0 0.0
2015-Aug-28 02:32N 35°24' E 139°40'0 0.0
2015-Aug-28 01:32N 35°24' E 139°40'0 0.0
2015-Aug-28 00:32N 35°24' E 139°40'0 0.0
2015-Aug-27 23:32N 35°24' E 139°40'0 0.0
2015-Aug-27 22:32N 35°24' E 139°40'2 2.1
2015-Aug-27 21:33N 35°23' E 139°42'2 2.1
2015-Aug-27 20:31N 35°23' E 139°44'0 0.0
2015-Aug-27 19:31N 35°23' E 139°45'0 0.0
2015-Aug-27 18:31N 35°23' E 139°45'0 0.1
2015-Aug-27 17:31N 35°23' E 139°45'0 0.1
2015-Aug-27 16:31N 35°23' E 139°45'0 0.1
2015-Aug-27 15:31N 35°23' E 139°44'0 0.0
2015-Aug-27 14:31N 35°23' E 139°44'0 0.0
2015-Aug-27 13:31N 35°23' E 139°44'5 5.0
2015-Aug-27 12:31N 35°24' E 139°39'0 0.0
2015-Aug-27 11:31N 35°24' E 139°39'0 0.0
2015-Aug-27 10:31N 35°24' E 139°39'0 0.0
2015-Aug-27 09:31N 35°24' E 139°39'0 0.0
2015-Aug-27 08:31N 35°24' E 139°39'0 0.0
2015-Aug-27 07:31N 35°24' E 139°39'0 0.0
2015-Aug-27 06:28N 35°24' E 139°39'0 0.0
2015-Aug-27 05:33N 35°24' E 139°39'0 0.3
2015-Aug-27 04:33N 35°24' E 139°38'1 1.3
2015-Aug-27 03:32N 35°24' E 139°40'0 0.0
2015-Aug-27 02:32N 35°24' E 139°40'0 0.0
2015-Aug-27 01:32N 35°24' E 139°40'0 0.0
2015-Aug-27 00:32N 35°24' E 139°40'0 0.0
2015-Aug-26 23:32N 35°24' E 139°40'0 0.0
2015-Aug-26 22:32N 35°24' E 139°40'1 1.5
2015-Aug-26 21:33N 35°23' E 139°41'3 2.7
2015-Aug-26 20:33N 35°22' E 139°44'0 0.0
2015-Aug-26 19:33N 35°22' E 139°44'0 0.0
2015-Aug-26 18:33N 35°22' E 139°44'0 0.0
2015-Aug-26 17:33N 35°22' E 139°44'0 0.0
2015-Aug-26 16:33N 35°22' E 139°44'0 0.0
2015-Aug-26 15:33N 35°22' E 139°44'0 0.0
2015-Aug-26 14:33N 35°22' E 139°44'0 0.0
2015-Aug-26 13:33N 35°22' E 139°44'5 4.7
2015-Aug-26 12:28N 35°24' E 139°39'0 0.0
2015-Aug-26 11:31N 35°24' E 139°39'0 0.0
2015-Aug-26 10:31N 35°24' E 139°39'0 0.0
2015-Aug-26 09:31N 35°24' E 139°39'0 0.0
2015-Aug-26 08:31N 35°24' E 139°39'0 0.0
2015-Aug-26 07:31N 35°24' E 139°39'0 0.0
2015-Aug-26 06:34N 35°24' E 139°39'4 3.6
2015-Aug-26 05:33N 35°25' E 139°43'5 5.4
2015-Aug-26 04:34N 35°30' E 139°44'1 1.0
2015-Aug-26 03:32N 35°30' E 139°43'0 0.0
2015-Aug-26 02:32N 35°30' E 139°43'0 0.0
2015-Aug-26 01:32N 35°30' E 139°43'0 0.0
2015-Aug-26 00:32N 35°30' E 139°43'0 0.0
2015-Aug-25 23:32N 35°30' E 139°43'0 0.0
2015-Aug-25 22:34N 35°30' E 139°43'6 5.6
2015-Aug-25 21:34N 35°24' E 139°45'2 1.7
2015-Aug-25 20:31N 35°23' E 139°45'0 0.1
2015-Aug-25 19:31N 35°23' E 139°45'0 0.0
2015-Aug-25 18:31N 35°23' E 139°45'0 0.0
2015-Aug-25 17:31N 35°23' E 139°45'0 0.0
2015-Aug-25 16:31N 35°23' E 139°45'0 0.0
2015-Aug-25 15:31N 35°23' E 139°45'0 0.0
2015-Aug-25 14:31N 35°23' E 139°45'2 1.8
2015-Aug-25 13:33N 35°23' E 139°43'4 3.5
2015-Aug-25 12:33N 35°24' E 139°39'0 0.0
2015-Aug-25 11:33N 35°24' E 139°39'0 0.0
2015-Aug-25 10:30N 35°24' E 139°39'0 0.0
2015-Aug-25 09:33N 35°24' E 139°39'0 0.0
2015-Aug-25 08:33N 35°24' E 139°39'0 0.0
2015-Aug-25 07:33N 35°24' E 139°39'0 0.0
2015-Aug-25 06:33N 35°24' E 139°39'0 0.0
2015-Aug-25 05:33N 35°24' E 139°39'0 0.0
2015-Aug-25 04:30N 35°24' E 139°39'0 0.0
2015-Aug-25 03:33N 35°24' E 139°39'0 0.0
2015-Aug-25 02:33N 35°24' E 139°39'0 0.0
2015-Aug-25 01:30N 35°24' E 139°39'3 2.7
2015-Aug-25 00:34N 35°23' E 139°42'7 7.3
2015-Aug-24 23:33N 35°30' E 139°45'1 1.4
2015-Aug-24 22:33N 35°30' E 139°43'0 0.0
2015-Aug-24 21:33N 35°30' E 139°43'0 0.0
2015-Aug-24 20:33N 35°30' E 139°43'0 0.0
2015-Aug-24 19:33N 35°30' E 139°43'0 0.0
2015-Aug-24 18:33N 35°30' E 139°43'0 0.0
2015-Aug-24 17:33N 35°30' E 139°43'0 0.0
2015-Aug-24 16:33N 35°30' E 139°43'0 0.0
2015-Aug-24 15:30N 35°30' E 139°43'0 0.0
2015-Aug-24 14:33N 35°30' E 139°43'0 0.0
2015-Aug-24 13:33N 35°30' E 139°43'0 0.0
2015-Aug-24 12:33N 35°30' E 139°43'0 0.0
2015-Aug-24 11:33N 35°30' E 139°43'0 0.0
2015-Aug-24 10:33N 35°30' E 139°43'0 0.0
2015-Aug-24 09:33N 35°30' E 139°43'0 0.0
2015-Aug-24 08:33N 35°30' E 139°43'0 0.0
2015-Aug-24 07:33N 35°30' E 139°43'0 0.0
2015-Aug-24 06:33N 35°30' E 139°43'0 0.0
2015-Aug-24 05:33N 35°30' E 139°43'0 0.0
2015-Aug-24 04:33N 35°30' E 139°43'0 0.0
2015-Aug-24 03:33N 35°30' E 139°43'0 0.0
2015-Aug-24 02:33N 35°30' E 139°43'0 0.0
2015-Aug-24 01:33N 35°30' E 139°43'0 0.0
2015-Aug-24 00:33N 35°30' E 139°43'0 0.0
2015-Aug-23 23:33N 35°30' E 139°43'4 3.9
2015-Aug-23 22:33N 35°27' E 139°46'3 3.2
2015-Aug-23 21:33N 35°26' E 139°50'0 0.1
2015-Aug-23 20:33N 35°26' E 139°50'0 0.0
2015-Aug-23 19:33N 35°26' E 139°50'0 0.0
2015-Aug-23 18:33N 35°26' E 139°50'0 0.0
2015-Aug-23 17:33N 35°26' E 139°50'0 0.0
2015-Aug-23 16:30N 35°26' E 139°50'0 0.1
2015-Aug-23 15:33N 35°26' E 139°50'0 0.0
2015-Aug-23 14:33N 35°26' E 139°50'1 1.2
2015-Aug-23 13:33N 35°26' E 139°49'8 8.2
2015-Aug-23 12:32N 35°24' E 139°39'0 0.0
2015-Aug-23 11:32N 35°24' E 139°39'0 0.0
2015-Aug-23 10:32N 35°24' E 139°39'0 0.0
2015-Aug-23 09:32N 35°24' E 139°39'0 0.0
2015-Aug-23 08:32N 35°24' E 139°39'0 0.0
2015-Aug-23 07:32N 35°24' E 139°39'0 0.0
2015-Aug-23 06:33N 35°24' E 139°39'6 5.7
2015-Aug-23 05:34N 35°26' E 139°45'4 3.9
2015-Aug-23 04:34N 35°30' E 139°43'0 0.0
2015-Aug-23 03:32N 35°30' E 139°43'0 0.0
2015-Aug-23 02:32N 35°30' E 139°43'0 0.0
2015-Aug-23 01:32N 35°30' E 139°43'0 0.0
2015-Aug-23 00:32N 35°30' E 139°43'0 0.0
2015-Aug-22 23:32N 35°30' E 139°43'  

Dump ship's entire track history